Time;durP1;ratioP1;P1;durP2;ratioP2;P2;SDS_P1;SDS_P2;PMS_P1;PMS_P2;Temp;Humidity;BMP_temperature;BMP_pressure;BME280_temperature;BME280_humidity;BME280_pressure;Samples;Min_cycle;Max_cycle;Signal;HPM_P1;HPM_P2
2024/01/21 00:00:42;;;;;;;4.60;2.30;;;;;;;-9.60;77.05;96850.48;106651;1274;24347;-80
2024/01/21 00:03:31;;;;;;;3.90;1.30;;;;;;;-9.69;77.30;96850.48;106718;1274;22533;-81
2024/01/21 00:05:59;;;;;;;16.90;8.30;;;;;;;-9.75;77.07;96851.13;106693;1274;25250;-81
2024/01/21 00:08:27;;;;;;;22.50;11.40;;;;;;;-9.84;77.86;96851.02;106675;1274;22524;-81
2024/01/21 00:10:55;;;;;;;21.30;11.90;;;;;;;-9.90;78.10;96854.98;106674;1274;24375;-81
2024/01/21 00:13:24;;;;;;;6.50;3.50;;;;;;;-9.93;78.35;96859.96;106798;1274;22523;-81
2024/01/21 00:15:52;;;;;;;7.70;4.50;;;;;;;-9.93;78.64;96860.63;106864;1274;25517;-80
2024/01/21 00:18:20;;;;;;;7.90;4.30;;;;;;;-9.84;78.85;96858.98;106677;1274;22522;-81
2024/01/21 00:20:49;;;;;;;11.30;6.40;;;;;;;-9.86;78.14;96862.23;106725;1274;22638;-80
2024/01/21 00:23:17;;;;;;;10.10;5.70;;;;;;;-9.83;78.58;96858.57;107041;1274;22517;-81
2024/01/21 00:25:46;;;;;;;10.50;5.50;;;;;;;-9.79;78.37;96864.50;106967;1274;22665;-81
2024/01/21 00:28:14;;;;;;;7.10;3.70;;;;;;;-9.78;78.33;96861.00;106729;1274;25493;-80
2024/01/21 00:30:42;;;;;;;2.70;1.10;;;;;;;-9.78;77.89;96862.98;106804;1275;24097;-80
2024/01/21 00:33:11;;;;;;;3.00;1.30;;;;;;;-9.72;78.14;96864.73;106727;1274;25425;-80
2024/01/21 00:35:39;;;;;;;2.60;1.10;;;;;;;-9.69;77.96;96863.92;106727;1274;23649;-81
2024/01/21 00:38:07;;;;;;;1.80;0.90;;;;;;;-9.72;77.91;96863.15;106656;1274;26902;-80
2024/01/21 00:40:35;;;;;;;7.50;2.60;;;;;;;-9.73;78.20;96864.09;106603;1274;25626;-81
2024/01/21 00:43:06;;;;;;;5.80;3.20;;;;;;;-9.71;78.06;96870.91;107022;1274;22571;-81
2024/01/21 00:45:35;;;;;;;9.80;5.10;;;;;;;-9.70;77.92;96871.13;106691;1274;25516;-81
2024/01/21 00:48:03;;;;;;;8.00;4.20;;;;;;;-9.66;77.97;96874.48;106692;1274;22531;-81
2024/01/21 00:50:32;;;;;;;3.90;2.00;;;;;;;-9.74;77.23;96878.85;106739;1274;22730;-81
2024/01/21 00:53:00;;;;;;;6.30;3.30;;;;;;;-9.73;77.73;96878.04;106688;1274;22617;-81
2024/01/21 00:55:28;;;;;;;19.00;9.50;;;;;;;-9.81;76.81;96880.49;106624;1274;25298;-81
2024/01/21 00:57:56;;;;;;;28.80;13.70;;;;;;;-9.88;77.15;96887.28;106702;1274;24275;-81
2024/01/21 01:00:27;;;;;;;28.20;13.50;;;;;;;-9.88;76.30;96889.09;106667;1274;22590;-81
2024/01/21 01:02:55;;;;;;;148.60;55.30;;;;;;;-10.09;76.63;96885.88;106814;1274;22534;-81
2024/01/21 01:05:24;;;;;;;95.10;39.90;;;;;;;-10.16;77.30;96891.98;106953;1274;24254;-81
2024/01/21 01:07:52;;;;;;;78.60;36.40;;;;;;;-10.22;77.45;96895.80;106687;1274;24428;-81
2024/01/21 01:10:20;;;;;;;68.50;30.10;;;;;;;-10.27;77.46;96900.35;106787;1274;25492;-81
2024/01/21 01:12:48;;;;;;;8.90;4.50;;;;;;;-10.30;77.64;96907.38;106744;1274;22526;-80
2024/01/21 01:15:16;;;;;;;3.40;1.70;;;;;;;-10.27;77.81;96907.82;106693;1274;24305;-80
2024/01/21 01:17:47;;;;;;;2.70;1.40;;;;;;;-10.20;77.96;96904.06;106660;1274;22526;-81
2024/01/21 01:20:16;;;;;;;2.60;1.50;;;;;;;-10.27;78.20;96901.39;106855;1274;25540;-81
2024/01/21 01:22:44;;;;;;;20.70;9.80;;;;;;;-10.22;78.48;96894.73;106672;1275;22549;-81
2024/01/21 01:25:12;;;;;;;21.10;9.60;;;;;;;-10.18;78.32;96891.16;106647;1274;24210;-81
2024/01/21 01:27:40;;;;;;;62.20;28.30;;;;;;;-10.17;78.24;96891.73;106749;1274;24296;-80
2024/01/21 01:30:10;;;;;;;68.10;31.30;;;;;;;-10.11;78.30;96894.41;106642;1274;24909;-80
2024/01/21 01:32:38;;;;;;;69.70;33.30;;;;;;;-10.09;77.45;96889.99;106707;1274;22939;-81
2024/01/21 01:35:08;;;;;;;44.50;20.10;;;;;;;-10.18;77.27;96887.92;106696;1275;22535;-80
2024/01/21 01:37:36;;;;;;;31.80;15.20;;;;;;;-10.21;78.05;96887.83;106656;1275;22646;-81
2024/01/21 01:40:06;;;;;;;35.60;17.50;;;;;;;-10.29;77.30;96896.59;106696;1275;25436;-81
2024/01/21 01:42:34;;;;;;;21.30;10.50;;;;;;;-10.36;77.31;96904.33;107053;1259;22585;-81
2024/01/21 01:45:03;;;;;;;3.50;2.00;;;;;;;-10.34;77.97;96906.92;106958;1274;22998;-81
2024/01/21 01:47:31;;;;;;;3.00;1.50;;;;;;;-10.23;78.56;96907.23;106653;1274;26957;-81
2024/01/21 01:50:00;;;;;;;17.70;10.10;;;;;;;-10.20;78.21;96912.73;106621;1274;24617;-81
2024/01/21 01:52:28;;;;;;;19.60;10.60;;;;;;;-10.28;77.41;96915.52;106759;1274;24410;-81
2024/01/21 01:54:56;;;;;;;2.90;1.20;;;;;;;-10.38;77.24;96908.77;106687;1270;25295;-81
2024/01/21 01:57:26;;;;;;;21.90;9.80;;;;;;;-10.36;77.91;96897.70;106706;1265;25541;-81
2024/01/21 01:59:54;;;;;;;36.30;17.00;;;;;;;-10.36;78.60;96891.30;106739;1274;22734;-81
2024/01/21 02:02:23;;;;;;;63.10;29.20;;;;;;;-10.38;78.38;96894.17;106666;1275;26747;-81
2024/01/21 02:04:51;;;;;;;148.30;64.90;;;;;;;-10.38;78.64;96901.33;106654;1274;24070;-81
2024/01/21 02:07:20;;;;;;;76.80;34.10;;;;;;;-10.34;78.41;96895.33;106683;1274;23798;-81
2024/01/21 02:09:48;;;;;;;12.20;5.20;;;;;;;-10.39;77.85;96897.52;106756;1274;25598;-81
2024/01/21 02:12:18;;;;;;;5.80;3.00;;;;;;;-10.36;78.44;96896.83;106652;1264;22554;-81
2024/01/21 02:14:46;;;;;;;2.90;1.20;;;;;;;-10.34;78.36;96894.65;106662;1271;22635;-81
2024/01/21 02:17:15;;;;;;;1.10;0.60;;;;;;;-10.28;78.48;96893.96;106685;1275;22527;-81
2024/01/21 02:19:43;;;;;;;15.80;7.50;;;;;;;-10.22;78.47;96895.90;106787;1275;23933;-81
2024/01/21 02:22:12;;;;;;;41.20;20.10;;;;;;;-10.22;78.24;96900.54;106683;1274;22822;-81
2024/01/21 02:24:41;;;;;;;33.50;17.00;;;;;;;-10.31;77.27;96900.17;106702;1274;24351;-81
2024/01/21 02:27:09;;;;;;;47.40;21.30;;;;;;;-10.39;77.72;96901.89;106665;1274;22613;-81
2024/01/21 02:29:37;;;;;;;44.20;20.30;;;;;;;-10.45;77.49;96908.76;106676;1265;24561;-81
2024/01/21 02:32:06;;;;;;;41.70;15.10;;;;;;;-10.49;77.84;96914.53;106689;1274;22825;-81
2024/01/21 02:34:34;;;;;;;6.50;2.90;;;;;;;-10.48;78.18;96910.20;106604;1274;22517;-81
2024/01/21 02:37:02;;;;;;;2.90;1.30;;;;;;;-10.48;78.27;96911.39;106688;1274;25477;-81
2024/01/21 02:39:30;;;;;;;1.60;0.90;;;;;;;-10.42;78.39;96911.70;106710;1275;25725;-81
2024/01/21 02:41:58;;;;;;;13.00;6.00;;;;;;;-10.45;78.13;96906.05;106683;1275;24251;-81
2024/01/21 02:44:27;;;;;;;26.20;12.40;;;;;;;-10.52;78.30;96914.29;106696;1275;22679;-81
2024/01/21 02:46:55;;;;;;;32.40;14.60;;;;;;;-10.55;78.23;96916.44;106671;1274;24299;-81
2024/01/21 02:49:24;;;;;;;31.00;14.10;;;;;;;-10.55;78.12;96917.80;106677;1275;22534;-81
2024/01/21 02:51:52;;;;;;;55.60;26.60;;;;;;;-10.48;78.11;96916.61;107093;1275;24474;-81
2024/01/21 02:54:21;;;;;;;7.80;4.00;;;;;;;-10.49;77.99;96918.40;107028;1274;25493;-81
2024/01/21 02:56:49;;;;;;;2.50;1.30;;;;;;;-10.38;79.03;96921.58;106740;1274;22639;-81
2024/01/21 02:59:18;;;;;;;21.30;10.50;;;;;;;-10.22;79.06;96920.58;106666;1274;24256;-81
2024/01/21 03:01:46;;;;;;;18.70;10.10;;;;;;;-10.16;78.51;96923.46;106865;1274;22772;-81
2024/01/21 03:04:14;;;;;;;16.90;8.40;;;;;;;-10.13;77.61;96925.56;106666;1265;25514;-81
2024/01/21 03:06:44;;;;;;;2.20;1.30;;;;;;;-10.22;76.95;96925.19;106692;1275;22591;-81
2024/01/21 03:09:12;;;;;;;2.50;1.40;;;;;;;-10.31;77.30;96929.90;106770;1274;22524;-81
2024/01/21 03:11:40;;;;;;;47.60;18.60;;;;;;;-10.41;77.38;96939.52;106785;1274;22514;-81
2024/01/21 03:14:09;;;;;;;57.10;22.00;;;;;;;-10.42;78.05;96944.03;106655;1274;24407;-81
2024/01/21 03:16:37;;;;;;;40.10;16.30;;;;;;;-10.36;78.13;96944.87;106621;1275;22521;-81
2024/01/21 03:19:05;;;;;;;3.60;2.20;;;;;;;-10.38;77.68;96946.07;106670;1274;23212;-81
2024/01/21 03:21:33;;;;;;;8.00;3.30;;;;;;;-10.37;77.85;96948.88;106694;1268;22538;-80
2024/01/21 03:24:02;;;;;;;20.00;8.10;;;;;;;-10.37;77.90;96951.59;106697;1274;22522;-81
2024/01/21 03:26:30;;;;;;;44.00;17.80;;;;;;;-10.45;76.67;96951.77;106848;1274;22523;-80
2024/01/21 03:28:58;;;;;;;32.60;15.10;;;;;;;-10.57;76.77;96949.06;106624;1274;22705;-81
2024/01/21 03:31:28;;;;;;;37.50;16.10;;;;;;;-10.70;77.20;96955.30;106678;1275;22671;-80
2024/01/21 03:33:56;;;;;;;28.80;13.20;;;;;;;-10.76;77.23;96953.27;106727;1274;22531;-81
2024/01/21 03:36:25;;;;;;;23.50;8.80;;;;;;;-10.74;78.08;96960.20;106687;1274;22534;-79
2024/01/21 03:38:53;;;;;;;20.80;8.50;;;;;;;-10.67;78.20;96954.85;106686;1275;24391;-81
2024/01/21 03:41:22;;;;;;;1.20;0.60;;;;;;;-10.71;77.49;96954.70;106652;1274;25666;-80
2024/01/21 03:43:50;;;;;;;0.60;0.50;;;;;;;-10.63;78.09;96955.03;106624;1274;25534;-80
2024/01/21 03:46:18;;;;;;;1.20;0.80;;;;;;;-10.52;78.50;96957.63;106701;1274;25653;-80
2024/01/21 03:48:47;;;;;;;2.40;0.80;;;;;;;-10.40;78.74;96963.42;106648;1275;22534;-80
2024/01/21 03:51:15;;;;;;;1.70;0.80;;;;;;;-10.40;77.78;96962.02;106986;1275;24378;-80
2024/01/21 03:53:44;;;;;;;7.10;3.40;;;;;;;-10.50;77.40;96962.75;106824;1274;24026;-80
2024/01/21 03:56:17;;;;;;;25.70;10.90;;;;;;;-10.46;77.94;96968.98;106588;1275;22524;-80
2024/01/21 03:58:46;;;;;;;132.90;52.80;;;;;;;-10.50;76.96;96966.46;106825;1275;22592;-80
2024/01/21 04:01:15;;;;;;;25.30;12.00;;;;;;;-10.57;77.16;96967.11;106784;1274;24232;-81
2024/01/21 04:03:43;;;;;;;3.50;2.10;;;;;;;-10.64;76.90;96969.55;106662;1274;23977;-81
2024/01/21 04:06:12;;;;;;;24.10;10.60;;;;;;;-10.65;77.68;96973.08;106615;1274;22529;-81
2024/01/21 04:08:40;;;;;;;30.20;13.00;;;;;;;-10.54;78.26;96972.79;106671;1274;25633;-81
2024/01/21 04:11:08;;;;;;;27.70;10.80;;;;;;;-10.49;78.02;96975.61;106723;1274;22580;-81
2024/01/21 04:13:36;;;;;;;26.90;11.80;;;;;;;-10.52;77.00;96975.46;106914;1274;23417;-80
2024/01/21 04:16:05;;;;;;;34.30;14.30;;;;;;;-10.52;77.66;96980.08;106695;1275;24215;-80
2024/01/21 04:18:33;;;;;;;35.20;16.10;;;;;;;-10.48;77.50;96991.29;106653;1275;24373;-81
2024/01/21 04:21:01;;;;;;;69.30;26.10;;;;;;;-10.49;77.18;96999.75;106649;1274;22552;-80
2024/01/21 04:23:30;;;;;;;53.30;22.10;;;;;;;-10.50;77.01;97004.90;106686;1274;22775;-80
2024/01/21 04:25:58;;;;;;;76.10;28.80;;;;;;;-10.64;76.08;97009.00;106699;1274;24100;-80
2024/01/21 04:28:28;;;;;;;45.80;19.40;;;;;;;-10.77;76.54;97006.20;106712;1270;22588;-81
2024/01/21 04:30:56;;;;;;;43.00;16.80;;;;;;;-10.85;76.55;97008.89;106616;1275;25485;-80
2024/01/21 04:33:25;;;;;;;13.90;5.40;;;;;;;-10.98;77.00;97003.06;106711;1274;22568;-81
2024/01/21 04:35:53;;;;;;;11.20;4.10;;;;;;;-10.98;77.57;97006.44;106662;1275;25622;-81
2024/01/21 04:38:23;;;;;;;24.40;10.90;;;;;;;-11.02;77.82;97012.39;106624;1274;24399;-80
2024/01/21 04:40:55;;;;;;;37.40;16.20;;;;;;;-11.02;77.89;97014.28;106668;1274;24199;-80
2024/01/21 04:43:24;;;;;;;30.20;12.90;;;;;;;-11.05;78.09;97015.06;106663;1274;22659;-80
2024/01/21 04:45:52;;;;;;;7.60;3.30;;;;;;;-10.96;78.40;97011.89;106641;1274;24262;-80
2024/01/21 04:48:21;;;;;;;4.60;2.00;;;;;;;-10.88;78.39;97002.95;106732;1274;22532;-80
2024/01/21 04:50:49;;;;;;;0.60;0.30;;;;;;;-10.79;78.45;97004.98;106720;1274;25574;-81
2024/01/21 04:53:17;;;;;;;1.00;0.40;;;;;;;-10.73;78.29;97007.98;106830;1259;22527;-80
2024/01/21 04:55:45;;;;;;;15.40;7.10;;;;;;;-10.71;78.08;97003.98;106994;1274;25530;-81
2024/01/21 04:58:14;;;;;;;69.70;30.90;;;;;;;-10.80;78.02;97011.58;106650;1274;25558;-81
2024/01/21 05:00:42;;;;;;;83.60;36.90;;;;;;;-10.81;78.18;97018.64;106638;1274;22505;-80
2024/01/21 05:03:11;;;;;;;112.50;48.30;;;;;;;-10.89;77.31;97027.82;106668;1274;25618;-80
2024/01/21 05:05:39;;;;;;;113.60;50.90;;;;;;;-10.96;77.23;97027.86;106685;1275;25502;-80
2024/01/21 05:08:07;;;;;;;43.70;20.20;;;;;;;-10.92;78.36;97037.77;106633;1275;28194;-81
2024/01/21 05:10:36;;;;;;;5.00;2.70;;;;;;;-10.77;79.23;97027.64;106676;1275;24123;-80
2024/01/21 05:13:04;;;;;;;40.30;18.80;;;;;;;-10.74;78.70;97031.78;106686;1274;25610;-80
2024/01/21 05:15:32;;;;;;;95.40;42.50;;;;;;;-10.90;77.80;97042.80;106671;1275;25498;-80
2024/01/21 05:18:01;;;;;;;65.60;28.60;;;;;;;-10.96;77.54;97044.91;106731;1274;22546;-80
2024/01/21 05:20:29;;;;;;;49.40;24.30;;;;;;;-10.88;78.14;97054.58;106653;1253;25715;-80
2024/01/21 05:22:59;;;;;;;2.80;1.20;;;;;;;-10.78;78.73;97051.15;106667;1274;24255;-80
2024/01/21 05:25:27;;;;;;;4.90;1.90;;;;;;;-10.70;78.65;97052.70;106714;1274;22596;-80
2024/01/21 05:27:56;;;;;;;72.40;33.70;;;;;;;-10.80;78.27;97054.02;106669;1274;24241;-80
2024/01/21 05:30:24;;;;;;;43.10;20.90;;;;;;;-10.88;78.07;97059.50;106679;1275;25523;-80
2024/01/21 05:32:52;;;;;;;59.20;28.30;;;;;;;-11.00;77.62;97059.33;106653;1274;22612;-80
2024/01/21 05:35:22;;;;;;;69.20;30.70;;;;;;;-11.11;78.54;97059.88;106648;1274;22590;-80
2024/01/21 05:37:51;;;;;;;65.80;30.20;;;;;;;-11.10;78.43;97059.33;106639;1275;22628;-80
2024/01/21 05:40:19;;;;;;;57.80;27.10;;;;;;;-11.05;78.90;97057.70;106973;1274;25577;-80
2024/01/21 05:42:47;;;;;;;36.80;18.50;;;;;;;-10.96;78.68;97065.30;106738;1274;22807;-80
2024/01/21 05:45:16;;;;;;;34.20;18.90;;;;;;;-10.90;78.67;97073.27;106908;1275;22564;-80
2024/01/21 05:47:44;;;;;;;22.60;11.30;;;;;;;-10.84;78.53;97073.45;106751;1275;22575;-80
2024/01/21 05:50:12;;;;;;;2.40;1.70;;;;;;;-10.83;78.30;97071.30;106592;1274;22629;-80
2024/01/21 05:52:41;;;;;;;2.90;1.60;;;;;;;-10.73;78.88;97079.16;106683;1275;25504;-80
2024/01/21 05:55:09;;;;;;;3.80;2.10;;;;;;;-10.61;78.82;97081.87;106633;1275;22575;-80
2024/01/21 05:57:37;;;;;;;2.10;1.50;;;;;;;-10.50;79.07;97075.16;106588;1275;22537;-80
2024/01/21 06:00:06;;;;;;;1.30;0.80;;;;;;;-10.39;78.99;97069.25;107031;1275;25565;-81
2024/01/21 06:02:43;;;;;;;34.50;17.60;;;;;;;-10.48;77.63;97070.19;106788;1275;22634;-80
2024/01/21 06:05:12;;;;;;;183.90;70.80;;;;;;;-10.75;77.62;97071.32;106785;1275;22709;-80
2024/01/21 06:07:41;;;;;;;163.70;68.20;;;;;;;-10.91;78.53;97065.88;106647;1272;22675;-80
2024/01/21 06:10:09;;;;;;;139.00;63.80;;;;;;;-10.95;78.34;97064.81;106638;1271;22563;-80
2024/01/21 06:12:38;;;;;;;104.60;47.80;;;;;;;-10.93;78.72;97064.67;106631;1274;22580;-80
2024/01/21 06:15:06;;;;;;;65.30;32.90;;;;;;;-10.82;79.03;97065.71;106686;1274;25569;-80
2024/01/21 06:17:35;;;;;;;86.90;38.80;;;;;;;-10.72;79.11;97069.20;106661;1274;22822;-80
2024/01/21 06:20:03;;;;;;;93.10;43.40;;;;;;;-10.63;78.74;97077.61;106675;1274;23302;-80
2024/01/21 06:22:33;;;;;;;9.50;5.10;;;;;;;-10.62;78.11;97075.17;106684;1274;22556;-80
2024/01/21 06:25:01;;;;;;;3.10;2.10;;;;;;;-10.56;78.45;97080.42;106668;1274;24277;-80
2024/01/21 06:27:30;;;;;;;2.60;1.40;;;;;;;-10.45;78.71;97077.94;106663;1275;22581;-80
2024/01/21 06:30:10;;;;;;;46.80;24.10;;;;;;;-10.36;78.78;97072.80;106672;1274;25548;-80
2024/01/21 06:32:39;;;;;;;65.00;31.90;;;;;;;-10.47;77.63;97078.80;106698;1274;25518;-80
2024/01/21 06:35:21;;;;;;;70.30;32.80;;;;;;;-10.56;77.66;97083.67;106688;1275;22540;-80
2024/01/21 06:37:49;;;;;;;58.70;29.20;;;;;;;-10.57;78.06;97094.58;106764;1275;22591;-80
2024/01/21 06:40:18;;;;;;;47.40;24.60;;;;;;;-10.61;77.50;97096.13;106644;1274;25671;-80
2024/01/21 06:42:46;;;;;;;59.20;30.80;;;;;;;-10.68;77.81;97102.53;106699;1274;24304;-80
2024/01/21 06:45:15;;;;;;;57.30;30.30;;;;;;;-10.61;78.80;97104.50;106888;1274;24321;-80
2024/01/21 06:47:43;;;;;;;99.50;45.60;;;;;;;-10.55;78.23;97104.30;106623;1274;22535;-80
2024/01/21 06:50:12;;;;;;;50.80;23.80;;;;;;;-10.40;78.93;97093.68;106670;1274;24444;-80
2024/01/21 06:52:40;;;;;;;75.80;36.80;;;;;;;-10.21;79.17;97087.45;106641;1274;24241;-80
2024/01/21 06:55:09;;;;;;;82.40;42.20;;;;;;;-10.03;79.64;97086.07;106678;1262;22527;-80
2024/01/21 06:57:39;;;;;;;84.90;40.70;;;;;;;-9.81;79.34;97090.59;106649;1274;25569;-80
2024/01/21 07:00:11;;;;;;;89.00;44.20;;;;;;;-9.68;78.80;97089.45;107017;1274;25278;-80
2024/01/21 07:02:39;;;;;;;97.40;50.20;;;;;;;-9.63;77.93;97089.48;107082;1275;25631;-80
2024/01/21 07:05:08;;;;;;;40.20;16.90;;;;;;;-9.57;78.11;97089.51;106767;1274;22526;-80
2024/01/21 07:07:36;;;;;;;78.60;34.90;;;;;;;-9.45;78.76;97086.33;106741;1275;24235;-80
2024/01/21 07:10:05;;;;;;;63.70;32.90;;;;;;;-9.31;79.01;97091.79;106909;1275;22523;-80
2024/01/21 07:12:34;;;;;;;65.60;31.50;;;;;;;-9.15;79.07;97093.89;106731;1275;25307;-81
2024/01/21 07:15:03;;;;;;;52.90;26.10;;;;;;;-8.90;79.26;97098.28;106678;1275;22524;-80
2024/01/21 07:17:31;;;;;;;67.30;28.60;;;;;;;-8.60;79.66;97101.02;106781;1274;24229;-80
2024/01/21 07:19:59;;;;;;;51.80;23.90;;;;;;;-8.29;79.28;97101.63;106651;1275;22601;-80
2024/01/21 07:22:28;;;;;;;56.30;25.20;;;;;;;-8.13;78.50;97096.37;106979;1275;22591;-81
2024/01/21 07:24:56;;;;;;;45.20;21.40;;;;;;;-8.01;78.37;97100.67;106763;1275;22520;-80
2024/01/21 07:27:25;;;;;;;45.70;24.10;;;;;;;-7.97;77.92;97100.19;106989;1274;24408;-80
2024/01/21 07:29:53;;;;;;;42.20;19.90;;;;;;;-7.89;77.88;97104.20;106794;1275;22744;-81
2024/01/21 07:32:21;;;;;;;45.00;22.30;;;;;;;-7.84;77.32;97102.02;106669;1275;22641;-80
2024/01/21 07:34:49;;;;;;;87.80;44.60;;;;;;;-7.90;76.84;97099.85;106647;1274;26120;-81
2024/01/21 07:37:18;;;;;;;75.20;41.40;;;;;;;-7.92;77.38;97106.52;106630;1274;22559;-80
2024/01/21 07:39:46;;;;;;;74.50;39.80;;;;;;;-7.76;78.35;97109.14;106696;1274;24209;-80
2024/01/21 07:42:15;;;;;;;35.40;20.50;;;;;;;-7.53;78.28;97110.31;106648;1275;22781;-81
2024/01/21 07:44:43;;;;;;;31.90;16.90;;;;;;;-7.27;78.67;97114.61;106705;1275;22303;-80
2024/01/21 07:47:11;;;;;;;30.90;16.60;;;;;;;-6.98;78.60;97108.67;106678;1275;25420;-81
2024/01/21 07:49:39;;;;;;;28.50;15.50;;;;;;;-6.67;78.70;97113.20;106682;1271;24063;-81
2024/01/21 07:52:09;;;;;;;34.60;17.50;;;;;;;-6.49;77.51;97108.99;106678;1275;22676;-81
2024/01/21 07:54:38;;;;;;;36.30;19.50;;;;;;;-6.39;77.04;97107.10;106965;1274;22706;-81
2024/01/21 07:57:06;;;;;;;32.80;18.30;;;;;;;-6.24;77.26;97109.66;106646;1257;22528;-81
2024/01/21 07:59:34;;;;;;;39.60;19.60;;;;;;;-6.06;76.87;97102.75;106638;1274;24979;-81
2024/01/21 08:02:03;;;;;;;28.70;14.50;;;;;;;-5.95;76.43;97106.58;106779;1274;22511;-81
2024/01/21 08:04:31;;;;;;;20.50;10.80;;;;;;;-5.90;76.05;97105.20;106761;1275;23884;-81
2024/01/21 08:06:59;;;;;;;56.90;22.80;;;;;;;-5.71;76.70;97106.07;106773;1274;23355;-81
2024/01/21 08:09:28;;;;;;;29.70;14.00;;;;;;;-5.49;75.83;97112.88;106836;1275;22677;-81
2024/01/21 08:11:56;;;;;;;39.50;20.60;;;;;;;-5.47;75.36;97122.49;106746;1274;22974;-81
2024/01/21 08:14:24;;;;;;;51.40;27.10;;;;;;;-5.34;75.65;97126.24;106724;1274;25383;-81
2024/01/21 08:16:53;;;;;;;61.30;33.20;;;;;;;-5.19;75.36;97122.94;106617;1274;23887;-81
2024/01/21 08:19:21;;;;;;;56.30;28.90;;;;;;;-5.11;74.30;97127.41;106640;1275;25512;-81
2024/01/21 08:21:49;;;;;;;51.60;29.10;;;;;;;-5.02;74.87;97137.09;106684;1274;22635;-81
2024/01/21 08:24:18;;;;;;;46.10;24.80;;;;;;;-4.93;74.41;97132.22;106644;1274;22525;-81
2024/01/21 08:26:46;;;;;;;79.60;42.00;;;;;;;-4.95;74.42;97136.84;106641;1275;25353;-80
2024/01/21 08:29:14;;;;;;;56.20;29.80;;;;;;;-4.91;75.56;97143.32;106688;1275;22638;-81
2024/01/21 08:31:44;;;;;;;39.80;22.30;;;;;;;-4.66;75.91;97149.17;106670;1274;22532;-81
2024/01/21 08:34:12;;;;;;;34.30;18.80;;;;;;;-4.49;74.87;97157.86;106724;1275;22540;-81
2024/01/21 08:36:41;;;;;;;27.40;13.00;;;;;;;-4.32;75.04;97150.88;107064;1274;24277;-81
2024/01/21 08:39:09;;;;;;;21.30;13.10;;;;;;;-4.08;74.41;97156.83;107010;1274;22602;-81
2024/01/21 08:41:38;;;;;;;30.10;16.50;;;;;;;-4.04;72.51;97156.10;107010;1269;22743;-81
2024/01/21 08:44:07;;;;;;;39.20;22.40;;;;;;;-3.91;73.09;97162.02;106943;1274;22525;-81
2024/01/21 08:46:35;;;;;;;33.00;20.40;;;;;;;-3.81;72.68;97156.46;106754;1274;22529;-81
2024/01/21 08:49:03;;;;;;;28.20;17.20;;;;;;;-3.77;71.76;97156.04;106715;1274;22542;-81
2024/01/21 08:51:31;;;;;;;29.50;18.30;;;;;;;-3.82;71.75;97157.78;106682;1274;24113;-80
2024/01/21 08:54:00;;;;;;;27.70;15.50;;;;;;;-3.83;72.13;97152.20;106679;1274;22494;-81
2024/01/21 08:56:28;;;;;;;22.20;12.60;;;;;;;-3.67;72.66;97157.16;106710;1274;22772;-81
2024/01/21 08:58:56;;;;;;;21.40;11.80;;;;;;;-3.47;72.85;97157.16;106678;1274;25329;-81
2024/01/21 09:01:24;;;;;;;33.70;15.40;;;;;;;-3.32;72.66;97155.81;106719;1274;22782;-81
2024/01/21 09:03:52;;;;;;;35.40;16.30;;;;;;;-3.23;71.70;97157.36;106954;1274;22636;-80
2024/01/21 09:06:21;;;;;;;26.30;11.60;;;;;;;-3.14;72.23;97155.88;106953;1275;22559;-80
2024/01/21 09:08:53;;;;;;;24.10;9.80;;;;;;;-3.06;72.01;97156.30;106647;1275;22527;-79
2024/01/21 09:11:23;;;;;;;20.20;9.40;;;;;;;-3.00;72.45;97153.02;106706;1274;23932;-80
2024/01/21 09:13:51;;;;;;;25.60;12.70;;;;;;;-2.89;72.85;97154.41;106688;1275;23886;-80
2024/01/21 09:16:20;;;;;;;20.80;10.90;;;;;;;-2.71;73.18;97149.70;106658;1274;22549;-80
2024/01/21 09:18:48;;;;;;;18.10;10.40;;;;;;;-2.50;73.12;97145.55;106602;1275;25344;-80
2024/01/21 09:21:16;;;;;;;18.90;10.30;;;;;;;-2.27;72.97;97142.90;106636;1274;22537;-80
2024/01/21 09:24:01;;;;;;;18.90;11.30;;;;;;;-2.08;72.83;97139.45;106681;1275;22502;-80
2024/01/21 09:26:29;;;;;;;21.70;11.90;;;;;;;-1.97;72.20;97140.27;106685;1263;22642;-80
2024/01/21 09:28:58;;;;;;;56.80;24.30;;;;;;;-1.86;72.31;97134.09;106709;1275;22575;-78
2024/01/21 09:31:26;;;;;;;67.70;26.40;;;;;;;-1.66;72.18;97136.73;106740;1275;24511;-78
2024/01/21 09:33:56;;;;;;;35.60;17.50;;;;;;;-1.39;72.52;97127.47;106665;1274;23906;-78
2024/01/21 09:36:25;;;;;;;22.40;13.20;;;;;;;-1.11;71.73;97125.41;106718;1275;22601;-78
2024/01/21 09:38:54;;;;;;;24.20;12.40;;;;;;;-0.96;71.35;97122.04;106694;1275;22534;-78
2024/01/21 09:41:33;;;;;;;33.60;14.20;;;;;;;-0.84;70.23;97125.58;106593;1275;24231;-78
2024/01/21 09:44:02;;;;;;;34.20;15.60;;;;;;;-0.82;69.90;97124.42;106689;1274;22607;-78
2024/01/21 09:46:30;;;;;;;42.70;17.80;;;;;;;-0.78;68.53;97119.49;106620;1274;25015;-78
2024/01/21 09:49:03;;;;;;;48.90;21.20;;;;;;;-0.91;67.64;97124.37;106689;1274;22757;-77
2024/01/21 09:51:32;;;;;;;60.30;23.10;;;;;;;-1.02;67.45;97124.86;106738;1274;23909;-77
2024/01/21 09:54:04;;;;;;;66.20;24.30;;;;;;;-1.08;67.26;97125.21;106705;1274;24093;-78
2024/01/21 09:56:34;;;;;;;64.80;23.50;;;;;;;-1.13;67.29;97121.73;106698;1275;22489;-79
2024/01/21 09:59:05;;;;;;;53.80;19.40;;;;;;;-1.19;67.51;97118.98;106877;1274;22518;-79
2024/01/21 10:01:36;;;;;;;47.50;17.20;;;;;;;-1.03;68.18;97124.62;106830;1274;22531;-79
2024/01/21 10:04:04;;;;;;;33.70;12.70;;;;;;;-0.76;67.93;97124.23;106765;1274;23881;-79
2024/01/21 10:06:34;;;;;;;26.40;10.50;;;;;;;-0.52;67.70;97125.08;106648;1270;22528;-79
2024/01/21 10:09:21;;;;;;;40.10;14.50;;;;;;;-0.15;67.69;97122.02;106706;1274;23038;-79
2024/01/21 10:11:53;;;;;;;29.70;10.90;;;;;;;0.44;65.97;97116.75;106686;1275;25431;-79
2024/01/21 10:14:22;;;;;;;24.30;11.10;;;;;;;0.96;62.72;97112.25;106732;1275;22943;-79
2024/01/21 10:16:50;;;;;;;17.80;8.20;;;;;;;1.46;59.01;97101.36;106630;1273;24067;-79
2024/01/21 10:19:26;;;;;;;53.40;21.90;;;;;;;1.97;59.32;97103.40;106702;1274;24199;-79
2024/01/21 10:22:14;;;;;;;23.20;10.70;;;;;;;2.63;60.62;97101.19;106770;1274;22648;-79
2024/01/21 10:24:45;;;;;;;31.60;16.00;;;;;;;3.25;56.02;97092.05;106634;1274;24684;-79
2024/01/21 10:27:15;;;;;;;30.10;16.10;;;;;;;3.59;55.95;97089.34;106763;1274;24373;-79
2024/01/21 10:29:45;;;;;;;26.10;14.00;;;;;;;4.01;56.40;97085.25;106674;1274;24385;-79
2024/01/21 10:32:16;;;;;;;24.20;12.10;;;;;;;4.42;53.50;97087.87;106668;1274;25733;-79
2024/01/21 10:34:50;;;;;;;16.80;10.00;;;;;;;4.82;51.42;97083.62;106662;1274;22538;-80
2024/01/21 10:37:20;;;;;;;15.90;8.40;;;;;;;5.07;49.33;97079.07;106670;1274;22538;-80
2024/01/21 10:39:49;;;;;;;12.70;7.50;;;;;;;5.32;48.64;97078.15;106720;1274;25411;-80
2024/01/21 10:42:20;;;;;;;11.50;5.60;;;;;;;5.87;47.56;97080.02;106696;1274;22521;-80
2024/01/21 10:44:51;;;;;;;13.20;6.80;;;;;;;6.13;45.70;97078.55;106666;1274;24275;-79
2024/01/21 10:47:21;;;;;;;9.10;5.00;;;;;;;6.50;45.71;97075.33;106704;1263;24245;-79
2024/01/21 10:49:49;;;;;;;6.70;4.60;;;;;;;6.61;44.45;97078.19;106787;1274;22648;-79
2024/01/21 10:52:19;;;;;;;7.10;4.10;;;;;;;6.84;43.42;97075.33;106743;1274;23023;-80
2024/01/21 10:54:49;;;;;;;6.40;4.00;;;;;;;6.96;43.04;97074.52;106280;1274;643082;-79
2024/01/21 10:57:17;;;;;;;5.20;3.50;;;;;;;7.51;43.77;97072.70;106706;1274;25543;-80
2024/01/21 10:59:47;;;;;;;5.70;3.90;;;;;;;7.90;42.17;97075.61;106784;1274;24662;-80
2024/01/21 11:02:19;;;;;;;;;;;;;;;8.15;41.07;97071.61;106712;1274;24024;-79
2024/01/21 11:04:48;;;;;;;5.40;3.60;;;;;;;8.15;40.53;97076.86;106700;1274;22660;-80
2024/01/21 11:07:18;;;;;;;4.40;3.30;;;;;;;8.36;40.05;97077.52;106693;1253;24351;-80
2024/01/21 11:09:48;;;;;;;4.50;3.30;;;;;;;8.90;40.90;97070.52;106792;1274;24237;-80
2024/01/21 11:12:17;;;;;;;4.40;3.30;;;;;;;9.16;38.69;97063.60;106735;1274;24228;-80
2024/01/21 11:14:46;;;;;;;4.50;2.90;;;;;;;9.27;38.58;97061.24;106695;1274;22519;-80
2024/01/21 11:17:19;;;;;;;10.10;6.10;;;;;;;9.40;37.43;97057.88;106655;1274;22601;-80
2024/01/21 11:19:47;;;;;;;5.30;3.30;;;;;;;9.03;37.12;97058.02;106635;1274;25307;-80